TVF38CS LFPO-LPMA
Flight info
| Callsign | TVF38CS |
|---|---|
| Flight time | N/A |
| Altitude | 33000 |
| Route | AGOPA DCT ARKIP DCT ARMAL DCT ARTAX DCT BEBIX DCT LMG DCT UVELI DCT OSMOB DCT VAVIX DCT BTZ DCT URUNA DCT SSN DCT VRA DCT NEA DCT ZANKO DCT RIDAV DCT ADINO DCT ELVAR DCT NARTA DCT RAKUN |
| Aircraft | A320/M-SDE3FGHIRWY/LB1 |
Departure
| Time | 2026-04-30 12:34 |
|---|---|
| Airport | Paris-Orly Airport (LFPO) |
Arrival
| Time | N/A |
|---|---|
| Airport | Cristiano Ronaldo International Airport (LPMA) |
| Time | Latitude | Longitude | Altitude | Speed | Heading |
|---|---|---|---|---|---|
| 2026-04-30 11:51 | 48.72699 | 2.36663 | 292 ft | 0 kts | 22° |
| 2026-04-30 12:27 | 48.72692 | 2.36658 | 291 ft | 4 kts | 23° |
| 2026-04-30 12:27 | 48.72667 | 2.36642 | 291 ft | 4 kts | 21° |
| 2026-04-30 12:28 | 48.72642 | 2.36628 | 291 ft | 4 kts | 9° |
| 2026-04-30 12:28 | 48.72616 | 2.36630 | 295 ft | 4 kts | 334° |
| 2026-04-30 12:28 | 48.72597 | 2.36654 | 291 ft | 4 kts | 286° |
| 2026-04-30 12:28 | 48.72596 | 2.36682 | 291 ft | 0 kts | 247° |
| 2026-04-30 12:30 | 48.72596 | 2.36680 | 291 ft | 2 kts | 247° |
| 2026-04-30 12:30 | 48.72554 | 2.36612 | 297 ft | 14 kts | 197° |
| 2026-04-30 12:30 | 48.72476 | 2.36522 | 293 ft | 20 kts | 254° |
| 2026-04-30 12:31 | 48.72438 | 2.36311 | 292 ft | 21 kts | 255° |
| 2026-04-30 12:31 | 48.72397 | 2.36087 | 293 ft | 22 kts | 255° |
| 2026-04-30 12:31 | 48.72358 | 2.35877 | 295 ft | 20 kts | 255° |
| 2026-04-30 12:31 | 48.72322 | 2.35680 | 291 ft | 18 kts | 253° |
| 2026-04-30 12:32 | 48.72229 | 2.35605 | 295 ft | 16 kts | 169° |
| 2026-04-30 12:32 | 48.72121 | 2.35643 | 294 ft | 16 kts | 163° |
| 2026-04-30 12:32 | 48.72032 | 2.35745 | 291 ft | 17 kts | 124° |
| 2026-04-30 12:32 | 48.71976 | 2.35888 | 297 ft | 12 kts | 125° |
| 2026-04-30 12:33 | 48.71963 | 2.35979 | 292 ft | 5 kts | 72° |
| 2026-04-30 12:33 | 48.71968 | 2.36006 | 292 ft | 0 kts | 75° |
| 2026-04-30 12:33 | 48.71968 | 2.36007 | 292 ft | 3 kts | 75° |
| 2026-04-30 12:33 | 48.72044 | 2.36416 | 295 ft | 75 kts | 74° |
| 2026-04-30 12:34 | 48.72239 | 2.37477 | 290 ft | 131 kts | 74° |
| 2026-04-30 12:34 | 48.72529 | 2.39026 | 349 ft | 169 kts | 74° |
| 2026-04-30 12:34 | 48.72855 | 2.40733 | 997 ft | 169 kts | 75° |
| 2026-04-30 12:34 | 48.73180 | 2.42461 | 1723 ft | 173 kts | 75° |
| 2026-04-30 12:35 | 48.73510 | 2.44241 | 2468 ft | 179 kts | 77° |
| 2026-04-30 12:35 | 48.73856 | 2.46160 | 2828 ft | 199 kts | 77° |
| 2026-04-30 12:35 | 48.74109 | 2.48353 | 3223 ft | 224 kts | 85° |
| 2026-04-30 12:35 | 48.74224 | 2.50814 | 3771 ft | 243 kts | 89° |
| 2026-04-30 12:36 | 48.74298 | 2.53405 | 4562 ft | 249 kts | 89° |
| 2026-04-30 12:36 | 48.74301 | 2.56052 | 5313 ft | 254 kts | 101° |
| 2026-04-30 12:36 | 48.73520 | 2.58431 | 6042 ft | 259 kts | 135° |
| 2026-04-30 12:36 | 48.71966 | 2.59849 | 6837 ft | 266 kts | 157° |
| 2026-04-30 12:37 | 48.70189 | 2.60690 | 7646 ft | 271 kts | 163° |
| 2026-04-30 12:37 | 48.68339 | 2.61353 | 8437 ft | 275 kts | 165° |
| 2026-04-30 12:37 | 48.66433 | 2.61819 | 9170 ft | 281 kts | 178° |
| 2026-04-30 12:37 | 48.64485 | 2.61323 | 9898 ft | 289 kts | 197° |
| 2026-04-30 12:38 | 48.62699 | 2.59860 | 10604 ft | 297 kts | 217° |
| 2026-04-30 12:38 | 48.61241 | 2.57574 | 11059 ft | 313 kts | 227° |
| 2026-04-30 12:38 | 48.59801 | 2.55007 | 11228 ft | 336 kts | 228° |
| 2026-04-30 12:38 | 48.58243 | 2.52173 | 11378 ft | 357 kts | 228° |
| 2026-04-30 12:39 | 48.56627 | 2.49218 | 11675 ft | 370 kts | 229° |
| 2026-04-30 12:39 | 48.54971 | 2.46193 | 12248 ft | 376 kts | 228° |
| 2026-04-30 12:39 | 48.53297 | 2.43143 | 12886 ft | 379 kts | 228° |
| 2026-04-30 12:39 | 48.52270 | 2.41274 | 13268 ft | 381 kts | 228° |
| 2026-04-30 12:40 | 48.50568 | 2.38185 | 13869 ft | 385 kts | 228° |
| 2026-04-30 12:40 | 48.48849 | 2.35070 | 14457 ft | 388 kts | 228° |
| 2026-04-30 12:40 | 48.47111 | 2.31933 | 15017 ft | 391 kts | 228° |
| 2026-04-30 12:40 | 48.45363 | 2.28782 | 15570 ft | 394 kts | 228° |
| 2026-04-30 12:41 | 48.43597 | 2.25597 | 16128 ft | 398 kts | 227° |
| 2026-04-30 12:41 | 48.41815 | 2.22390 | 16643 ft | 401 kts | 227° |
| 2026-04-30 12:41 | 48.40019 | 2.19168 | 17156 ft | 403 kts | 227° |
| 2026-04-30 12:41 | 48.38210 | 2.15929 | 17638 ft | 405 kts | 227° |
| 2026-04-30 12:42 | 48.36388 | 2.12672 | 18109 ft | 408 kts | 227° |
| 2026-04-30 12:42 | 48.34551 | 2.09393 | 18582 ft | 411 kts | 227° |
| 2026-04-30 12:42 | 48.32598 | 2.06244 | 19029 ft | 412 kts | 219° |
| 2026-04-30 12:42 | 48.30301 | 2.03690 | 19461 ft | 411 kts | 207° |
| 2026-04-30 12:43 | 48.27722 | 2.01848 | 19865 ft | 410 kts | 196° |
| 2026-04-30 12:43 | 48.24966 | 2.00797 | 20281 ft | 409 kts | 185° |
| 2026-04-30 12:43 | 48.22140 | 2.00563 | 20689 ft | 407 kts | 175° |
| 2026-04-30 12:43 | 48.20256 | 2.00632 | 20966 ft | 409 kts | 175° |
| 2026-04-30 12:44 | 48.17404 | 2.00726 | 21358 ft | 412 kts | 176° |
| 2026-04-30 12:44 | 48.14534 | 2.00813 | 21738 ft | 414 kts | 176° |
| 2026-04-30 12:44 | 48.11644 | 2.00896 | 22118 ft | 416 kts | 176° |
| 2026-04-30 12:44 | 48.08742 | 2.00972 | 22507 ft | 418 kts | 176° |
| 2026-04-30 12:45 | 48.05823 | 2.01073 | 22860 ft | 421 kts | 175° |
| 2026-04-30 12:45 | 48.02888 | 2.01224 | 23212 ft | 423 kts | 174° |
| 2026-04-30 12:45 | 47.99942 | 2.01411 | 23549 ft | 425 kts | 174° |
| 2026-04-30 12:45 | 47.96984 | 2.01618 | 23877 ft | 427 kts | 174° |
| 2026-04-30 12:46 | 47.94012 | 2.01822 | 24205 ft | 429 kts | 174° |
| 2026-04-30 12:46 | 47.91019 | 2.02017 | 24524 ft | 431 kts | 174° |
| 2026-04-30 12:46 | 47.88020 | 2.02202 | 24852 ft | 433 kts | 174° |
| 2026-04-30 12:46 | 47.85006 | 2.02381 | 25170 ft | 435 kts | 174° |
| 2026-04-30 12:47 | 47.81977 | 2.02557 | 25495 ft | 436 kts | 174° |
| 2026-04-30 12:47 | 47.78940 | 2.02729 | 25800 ft | 438 kts | 174° |
| 2026-04-30 12:47 | 47.75892 | 2.02900 | 26099 ft | 439 kts | 174° |
| 2026-04-30 12:47 | 47.72833 | 2.03075 | 26382 ft | 441 kts | 174° |
| 2026-04-30 12:48 | 47.69763 | 2.03256 | 26659 ft | 442 kts | 174° |
| 2026-04-30 12:48 | 47.66679 | 2.03441 | 26928 ft | 444 kts | 174° |
| 2026-04-30 12:48 | 47.63591 | 2.03624 | 27185 ft | 445 kts | 174° |
| 2026-04-30 12:48 | 47.60493 | 2.03806 | 27439 ft | 446 kts | 175° |
| 2026-04-30 12:49 | 47.57385 | 2.03988 | 27677 ft | 448 kts | 175° |
| 2026-04-30 12:49 | 47.54264 | 2.04166 | 27914 ft | 450 kts | 175° |
| 2026-04-30 12:49 | 47.51135 | 2.04341 | 28158 ft | 451 kts | 175° |
| 2026-04-30 12:49 | 47.48031 | 2.04515 | 28386 ft | 452 kts | 175° |
| 2026-04-30 12:50 | 47.44888 | 2.04691 | 28682 ft | 452 kts | 175° |
| 2026-04-30 12:50 | 47.41750 | 2.04865 | 29002 ft | 451 kts | 175° |
| 2026-04-30 12:50 | 47.38621 | 2.05042 | 29325 ft | 450 kts | 175° |
| 2026-04-30 12:50 | 47.35497 | 2.05199 | 29622 ft | 450 kts | 178° |
| 2026-04-30 12:51 | 47.32370 | 2.04876 | 29919 ft | 452 kts | 186° |
| 2026-04-30 12:51 | 47.29272 | 2.04101 | 30225 ft | 452 kts | 187° |
| 2026-04-30 12:51 | 47.26174 | 2.03310 | 30523 ft | 451 kts | 187° |
| 2026-04-30 12:51 | 47.23087 | 2.02523 | 30804 ft | 450 kts | 187° |
| 2026-04-30 12:52 | 47.20000 | 2.01737 | 31080 ft | 450 kts | 187° |
| 2026-04-30 12:52 | 47.16920 | 2.00956 | 31369 ft | 449 kts | 188° |
| 2026-04-30 12:52 | 47.13840 | 2.00179 | 31644 ft | 449 kts | 188° |
| 2026-04-30 12:52 | 47.10764 | 1.99408 | 31906 ft | 448 kts | 188° |
| 2026-04-30 12:53 | 47.07690 | 1.98633 | 32213 ft | 447 kts | 188° |
| 2026-04-30 12:53 | 47.04634 | 1.97860 | 32508 ft | 446 kts | 188° |
| 2026-04-30 12:53 | 47.01582 | 1.97092 | 32780 ft | 445 kts | 188° |
| 2026-04-30 12:53 | 46.98528 | 1.96328 | 33022 ft | 445 kts | 188° |
| 2026-04-30 12:54 | 46.92431 | 1.94807 | 33110 ft | 445 kts | 188° |
| 2026-04-30 12:54 | 46.86333 | 1.93281 | 33110 ft | 445 kts | 188° |
| 2026-04-30 12:55 | 46.80233 | 1.91759 | 33110 ft | 445 kts | 188° |
| 2026-04-30 12:55 | 46.74133 | 1.90242 | 33110 ft | 444 kts | 188° |
| 2026-04-30 12:56 | 46.68038 | 1.88735 | 33109 ft | 445 kts | 188° |
| 2026-04-30 12:56 | 46.61930 | 1.87226 | 33110 ft | 444 kts | 188° |
| 2026-04-30 12:57 | 46.55838 | 1.85715 | 33105 ft | 444 kts | 189° |
| 2026-04-30 12:57 | 46.49741 | 1.84212 | 33105 ft | 444 kts | 189° |
| 2026-04-30 12:58 | 46.43648 | 1.82713 | 33104 ft | 444 kts | 189° |
| 2026-04-30 12:58 | 46.37553 | 1.81217 | 33104 ft | 444 kts | 189° |
| 2026-04-30 12:59 | 46.31464 | 1.79725 | 33104 ft | 444 kts | 189° |
| 2026-04-30 12:59 | 46.25584 | 1.77028 | 33103 ft | 445 kts | 206° |
| 2026-04-30 13:00 | 46.20553 | 1.71839 | 33102 ft | 446 kts | 220° |
| 2026-04-30 13:00 | 46.15859 | 1.65956 | 33105 ft | 447 kts | 220° |
| 2026-04-30 13:01 | 46.11152 | 1.60100 | 33108 ft | 447 kts | 219° |
| 2026-04-30 13:01 | 46.06440 | 1.54251 | 33109 ft | 447 kts | 220° |
| 2026-04-30 13:02 | 46.01729 | 1.48406 | 33109 ft | 447 kts | 219° |
| 2026-04-30 13:02 | 45.97040 | 1.42523 | 33113 ft | 447 kts | 224° |
| 2026-04-30 13:03 | 45.93305 | 1.35404 | 33118 ft | 449 kts | 241° |
| 2026-04-30 13:03 | 45.90476 | 1.27416 | 33121 ft | 449 kts | 242° |
| 2026-04-30 13:04 | 45.87628 | 1.19440 | 33121 ft | 449 kts | 241° |
| 2026-04-30 13:04 | 45.84779 | 1.11480 | 33121 ft | 449 kts | 241° |
| 2026-04-30 13:05 | 45.81697 | 1.03734 | 33121 ft | 446 kts | 231° |
| 2026-04-30 13:06 | 45.74986 | 0.94633 | 33119 ft | 444 kts | 218° |
| 2026-04-30 13:06 | 45.70250 | 0.88976 | 33119 ft | 443 kts | 218° |
| 2026-04-30 13:07 | 45.65510 | 0.83311 | 33122 ft | 444 kts | 218° |
| 2026-04-30 13:07 | 45.60797 | 0.77695 | 33118 ft | 444 kts | 218° |
| 2026-04-30 13:08 | 45.56048 | 0.72058 | 33118 ft | 444 kts | 218° |
| 2026-04-30 13:08 | 45.51300 | 0.66427 | 33116 ft | 444 kts | 218° |
| 2026-04-30 13:09 | 45.46549 | 0.60807 | 33115 ft | 444 kts | 218° |
| 2026-04-30 13:09 | 45.41795 | 0.55203 | 33115 ft | 443 kts | 218° |
| 2026-04-30 13:10 | 45.37049 | 0.49603 | 33113 ft | 443 kts | 218° |
| 2026-04-30 13:10 | 45.32297 | 0.44027 | 33114 ft | 443 kts | 218° |
| 2026-04-30 13:11 | 45.27542 | 0.38449 | 33115 ft | 443 kts | 218° |
| 2026-04-30 13:11 | 45.22786 | 0.32875 | 33118 ft | 443 kts | 218° |
| 2026-04-30 13:12 | 45.18031 | 0.27329 | 33116 ft | 443 kts | 218° |
| 2026-04-30 13:12 | 45.13267 | 0.21797 | 33112 ft | 443 kts | 218° |
| 2026-04-30 13:13 | 45.06127 | 0.13504 | 33120 ft | 442 kts | 218° |
| 2026-04-30 13:14 | 44.98997 | 0.05245 | 33133 ft | 441 kts | 218° |
| 2026-04-30 13:14 | 44.91875 | -0.02961 | 33132 ft | 440 kts | 219° |
| 2026-04-30 13:15 | 44.84735 | -0.11160 | 33112 ft | 442 kts | 219° |
| 2026-04-30 13:16 | 44.79964 | -0.16637 | 33110 ft | 443 kts | 219° |
| 2026-04-30 13:16 | 44.75193 | -0.22107 | 33111 ft | 443 kts | 219° |
| 2026-04-30 13:17 | 44.68014 | -0.30289 | 33112 ft | 443 kts | 219° |
| 2026-04-30 13:18 | 44.60687 | -0.38173 | 33114 ft | 442 kts | 215° |
| 2026-04-30 13:18 | 44.53005 | -0.45342 | 33112 ft | 442 kts | 214° |
| 2026-04-30 13:19 | 44.47903 | -0.50142 | 33118 ft | 442 kts | 214° |
| 2026-04-30 13:19 | 44.42833 | -0.55006 | 33118 ft | 441 kts | 215° |
| 2026-04-30 13:20 | 44.37772 | -0.59871 | 33116 ft | 441 kts | 215° |
| 2026-04-30 13:20 | 44.32706 | -0.64713 | 33117 ft | 441 kts | 215° |
| 2026-04-30 13:21 | 44.27639 | -0.69531 | 33118 ft | 441 kts | 215° |
| 2026-04-30 13:22 | 44.20194 | -0.77033 | 33117 ft | 440 kts | 218° |
| 2026-04-30 13:22 | 44.12838 | -0.84654 | 33119 ft | 439 kts | 217° |
| 2026-04-30 13:23 | 44.05436 | -0.92174 | 33119 ft | 439 kts | 217° |
| 2026-04-30 13:24 | 43.95582 | -1.02138 | 33119 ft | 437 kts | 219° |
| 2026-04-30 13:25 | 43.85818 | -1.11969 | 33120 ft | 433 kts | 219° |
| 2026-04-30 13:26 | 43.73653 | -1.24166 | 33088 ft | 431 kts | 218° |
| 2026-04-30 13:28 | 43.61492 | -1.36312 | 33082 ft | 431 kts | 218° |
| 2026-04-30 13:28 | 43.55016 | -1.42746 | 33085 ft | 431 kts | 218° |
| 2026-04-30 13:29 | 43.45750 | -1.53075 | 33092 ft | 426 kts | 233° |
| 2026-04-30 13:31 | 43.37502 | -1.69916 | 33092 ft | 425 kts | 238° |
| 2026-04-30 13:32 | 43.29214 | -1.86728 | 33102 ft | 425 kts | 236° |
| 2026-04-30 13:33 | 43.22008 | -1.99592 | 33097 ft | 425 kts | 234° |
| 2026-04-30 13:34 | 43.16625 | -2.09238 | 33101 ft | 424 kts | 235° |
| 2026-04-30 13:35 | 43.09509 | -2.22087 | 33101 ft | 423 kts | 235° |
| 2026-04-30 13:36 | 43.02402 | -2.34813 | 33099 ft | 421 kts | 235° |
| 2026-04-30 13:36 | 42.97065 | -2.44330 | 33098 ft | 420 kts | 235° |
| 2026-04-30 13:37 | 42.91729 | -2.53812 | 33090 ft | 419 kts | 235° |
| 2026-04-30 13:38 | 42.86394 | -2.63264 | 33085 ft | 419 kts | 235° |
| 2026-04-30 13:39 | 42.79287 | -2.75827 | 33077 ft | 418 kts | 235° |
| 2026-04-30 13:40 | 42.73947 | -2.85215 | 33073 ft | 418 kts | 235° |
| 2026-04-30 13:40 | 42.70411 | -2.91489 | 33073 ft | 418 kts | 236° |
| 2026-04-30 13:41 | 42.66921 | -2.97807 | 33076 ft | 418 kts | 236° |
| 2026-04-30 13:41 | 42.63429 | -3.04117 | 33082 ft | 418 kts | 236° |
| 2026-04-30 13:42 | 42.59918 | -3.10407 | 33088 ft | 418 kts | 236° |
| 2026-04-30 13:42 | 42.54640 | -3.19807 | 33101 ft | 417 kts | 235° |
| 2026-04-30 13:43 | 42.51124 | -3.26068 | 33101 ft | 417 kts | 236° |
| 2026-04-30 13:43 | 42.47606 | -3.32325 | 33105 ft | 417 kts | 236° |
| 2026-04-30 13:44 | 42.44088 | -3.38566 | 33112 ft | 417 kts | 235° |
| 2026-04-30 13:44 | 42.40571 | -3.44796 | 33120 ft | 416 kts | 235° |
| 2026-04-30 13:45 | 42.35291 | -3.54108 | 33124 ft | 416 kts | 235° |
| 2026-04-30 13:46 | 42.31771 | -3.60308 | 33125 ft | 415 kts | 235° |
| 2026-04-30 13:46 | 42.28253 | -3.66496 | 33126 ft | 415 kts | 235° |
| 2026-04-30 13:47 | 42.24729 | -3.72672 | 33126 ft | 415 kts | 235° |
| 2026-04-30 13:47 | 42.21205 | -3.78839 | 33125 ft | 414 kts | 235° |
| 2026-04-30 13:48 | 42.17687 | -3.84993 | 33126 ft | 414 kts | 235° |
| 2026-04-30 13:48 | 42.14161 | -3.91138 | 33126 ft | 414 kts | 235° |
| 2026-04-30 13:49 | 42.10657 | -3.97227 | 33124 ft | 414 kts | 235° |
| 2026-04-30 13:49 | 42.07104 | -4.03394 | 33122 ft | 414 kts | 235° |
| 2026-04-30 13:50 | 42.03564 | -4.09512 | 33124 ft | 414 kts | 233° |
| 2026-04-30 13:50 | 41.97211 | -4.17432 | 33124 ft | 419 kts | 225° |
| 2026-04-30 13:51 | 41.92814 | -4.22570 | 33124 ft | 419 kts | 225° |
| 2026-04-30 13:51 | 41.88419 | -4.27709 | 33124 ft | 420 kts | 225° |
| 2026-04-30 13:52 | 41.84017 | -4.32857 | 33128 ft | 420 kts | 224° |
| 2026-04-30 13:52 | 41.79612 | -4.37986 | 33128 ft | 420 kts | 224° |
| 2026-04-30 13:53 | 41.75197 | -4.43117 | 33130 ft | 420 kts | 224° |
| 2026-04-30 13:53 | 41.70780 | -4.48238 | 33131 ft | 420 kts | 224° |
| 2026-04-30 13:54 | 41.66357 | -4.53355 | 33133 ft | 421 kts | 224° |
| 2026-04-30 13:54 | 41.61933 | -4.58474 | 33126 ft | 420 kts | 224° |
| 2026-04-30 13:55 | 41.57507 | -4.63584 | 33127 ft | 421 kts | 224° |
| 2026-04-30 13:55 | 41.53073 | -4.68688 | 33124 ft | 421 kts | 224° |
| 2026-04-30 13:56 | 41.48636 | -4.73795 | 33126 ft | 421 kts | 223° |
| 2026-04-30 13:56 | 41.44191 | -4.78894 | 33126 ft | 421 kts | 223° |
| 2026-04-30 13:57 | 41.39750 | -4.83975 | 33124 ft | 421 kts | 223° |
| 2026-04-30 13:57 | 41.35306 | -4.89050 | 33120 ft | 421 kts | 223° |
| 2026-04-30 13:58 | 41.28631 | -4.96666 | 33115 ft | 422 kts | 223° |
| 2026-04-30 13:59 | 41.24172 | -5.01741 | 33115 ft | 422 kts | 223° |
| 2026-04-30 13:59 | 41.19699 | -5.06805 | 33113 ft | 423 kts | 223° |
| 2026-04-30 14:00 | 41.15225 | -5.11875 | 33116 ft | 423 kts | 223° |
| 2026-04-30 14:00 | 41.08504 | -5.19470 | 33112 ft | 423 kts | 222° |
| 2026-04-30 14:01 | 41.04017 | -5.24524 | 33112 ft | 423 kts | 222° |
| 2026-04-30 14:01 | 40.99532 | -5.29574 | 33110 ft | 424 kts | 222° |
| 2026-04-30 14:02 | 40.95041 | -5.34626 | 33111 ft | 423 kts | 222° |
| 2026-04-30 14:02 | 40.90549 | -5.39667 | 33107 ft | 424 kts | 222° |
| 2026-04-30 14:03 | 40.86048 | -5.44700 | 33108 ft | 424 kts | 221° |
| 2026-04-30 14:03 | 40.81547 | -5.49725 | 33108 ft | 424 kts | 221° |
| 2026-04-30 14:04 | 40.77038 | -5.54752 | 33105 ft | 424 kts | 221° |
| 2026-04-30 14:04 | 40.72526 | -5.59773 | 33104 ft | 424 kts | 221° |
| 2026-04-30 14:05 | 40.68012 | -5.64794 | 33103 ft | 425 kts | 221° |
| 2026-04-30 14:05 | 40.63488 | -5.69808 | 33104 ft | 425 kts | 221° |
| 2026-04-30 14:06 | 40.56702 | -5.77318 | 33104 ft | 425 kts | 221° |
| 2026-04-30 14:07 | 40.49923 | -5.84778 | 33105 ft | 426 kts | 220° |
| 2026-04-30 14:08 | 40.43117 | -5.92282 | 33101 ft | 426 kts | 220° |
| 2026-04-30 14:08 | 40.36298 | -5.99780 | 33105 ft | 426 kts | 220° |
| 2026-04-30 14:09 | 40.31749 | -6.04757 | 33102 ft | 426 kts | 220° |
| 2026-04-30 14:10 | 40.24911 | -6.12209 | 33099 ft | 427 kts | 220° |
| 2026-04-30 14:10 | 40.20351 | -6.17184 | 33098 ft | 427 kts | 220° |
| 2026-04-30 14:11 | 40.15794 | -6.22155 | 33101 ft | 426 kts | 220° |
| 2026-04-30 14:11 | 40.11234 | -6.27113 | 33097 ft | 427 kts | 220° |
| 2026-04-30 14:12 | 40.06667 | -6.32059 | 33100 ft | 426 kts | 220° |
| 2026-04-30 14:12 | 40.02098 | -6.37004 | 33102 ft | 427 kts | 220° |
| 2026-04-30 14:13 | 39.97524 | -6.41948 | 33103 ft | 427 kts | 220° |
| 2026-04-30 14:13 | 39.93720 | -6.46056 | 33100 ft | 427 kts | 220° |
| 2026-04-30 14:14 | 39.89139 | -6.50982 | 33093 ft | 427 kts | 219° |
| 2026-04-30 14:14 | 39.84549 | -6.55907 | 33092 ft | 427 kts | 219° |
| 2026-04-30 14:15 | 39.79963 | -6.60826 | 33088 ft | 428 kts | 219° |
| 2026-04-30 14:15 | 39.75367 | -6.65742 | 33090 ft | 428 kts | 219° |
| 2026-04-30 14:16 | 39.70775 | -6.70651 | 33091 ft | 428 kts | 219° |
| 2026-04-30 14:16 | 39.66181 | -6.75566 | 33092 ft | 428 kts | 219° |
| 2026-04-30 14:17 | 39.61586 | -6.80467 | 33090 ft | 428 kts | 219° |
| 2026-04-30 14:17 | 39.56983 | -6.85358 | 33087 ft | 428 kts | 219° |
| 2026-04-30 14:18 | 39.52371 | -6.90247 | 33087 ft | 428 kts | 219° |
| 2026-04-30 14:18 | 39.45458 | -6.97568 | 33074 ft | 428 kts | 219° |
| 2026-04-30 14:19 | 39.38538 | -7.04878 | 33073 ft | 428 kts | 219° |
| 2026-04-30 14:20 | 39.33926 | -7.09746 | 33071 ft | 428 kts | 219° |
| 2026-04-30 14:20 | 39.26995 | -7.17035 | 33070 ft | 428 kts | 218° |
| 2026-04-30 14:21 | 39.22441 | -7.21985 | 33068 ft | 429 kts | 225° |
| 2026-04-30 14:22 | 39.17088 | -7.31248 | 33066 ft | 430 kts | 233° |
| 2026-04-30 14:22 | 39.11894 | -7.40692 | 33070 ft | 431 kts | 233° |
| 2026-04-30 14:23 | 39.04979 | -7.53249 | 33067 ft | 432 kts | 233° |
| 2026-04-30 14:24 | 38.99759 | -7.62715 | 33077 ft | 433 kts | 233° |
| 2026-04-30 14:25 | 38.92772 | -7.75325 | 33085 ft | 433 kts | 233° |
| 2026-04-30 14:26 | 38.87521 | -7.84787 | 33089 ft | 434 kts | 233° |
| 2026-04-30 14:27 | 38.82256 | -7.94234 | 33087 ft | 434 kts | 233° |
| 2026-04-30 14:27 | 38.78738 | -8.00527 | 33089 ft | 434 kts | 232° |
| 2026-04-30 14:28 | 38.73446 | -8.09960 | 33093 ft | 435 kts | 232° |
| 2026-04-30 14:28 | 38.69940 | -8.16207 | 33097 ft | 435 kts | 232° |
| 2026-04-30 14:29 | 38.62865 | -8.28767 | 33093 ft | 435 kts | 232° |
| 2026-04-30 14:31 | 38.54006 | -8.44439 | 33088 ft | 435 kts | 232° |
| 2026-04-30 14:31 | 38.48672 | -8.53818 | 33091 ft | 435 kts | 232° |
| 2026-04-30 14:32 | 38.43344 | -8.63178 | 33090 ft | 434 kts | 232° |
| 2026-04-30 14:33 | 38.39785 | -8.69415 | 33090 ft | 435 kts | 232° |
| 2026-04-30 14:33 | 38.34444 | -8.78761 | 33091 ft | 435 kts | 232° |
| 2026-04-30 14:34 | 38.30875 | -8.84989 | 33094 ft | 435 kts | 232° |
| 2026-04-30 14:34 | 38.27302 | -8.91208 | 33094 ft | 435 kts | 232° |
| 2026-04-30 14:35 | 38.21919 | -9.00527 | 33103 ft | 436 kts | 232° |
| 2026-04-30 14:36 | 38.18336 | -9.06744 | 33099 ft | 436 kts | 232° |
| 2026-04-30 14:36 | 38.14750 | -9.12957 | 33096 ft | 436 kts | 232° |
| 2026-04-30 14:37 | 38.11182 | -9.19124 | 33103 ft | 436 kts | 232° |
| 2026-04-30 14:37 | 38.07578 | -9.25324 | 33101 ft | 436 kts | 232° |
| 2026-04-30 14:38 | 38.03950 | -9.31544 | 33102 ft | 436 kts | 232° |
| 2026-04-30 14:38 | 38.00371 | -9.37679 | 33101 ft | 436 kts | 232° |
| 2026-04-30 14:39 | 37.96765 | -9.43864 | 33102 ft | 436 kts | 232° |
| 2026-04-30 14:39 | 37.93161 | -9.50035 | 33101 ft | 436 kts | 232° |
| 2026-04-30 14:40 | 37.87734 | -9.59277 | 33099 ft | 436 kts | 232° |
| 2026-04-30 14:40 | 37.84114 | -9.65428 | 33094 ft | 436 kts | 232° |
| 2026-04-30 14:41 | 37.80495 | -9.71579 | 33100 ft | 436 kts | 232° |
| 2026-04-30 14:41 | 37.76871 | -9.77726 | 33095 ft | 436 kts | 232° |
| 2026-04-30 14:42 | 37.73243 | -9.83860 | 33098 ft | 436 kts | 232° |
| 2026-04-30 14:42 | 37.69612 | -9.89993 | 33101 ft | 436 kts | 232° |
| 2026-04-30 14:43 | 37.65978 | -9.96118 | 33095 ft | 436 kts | 232° |
| 2026-04-30 14:43 | 37.62342 | -10.02234 | 33094 ft | 436 kts | 232° |
| 2026-04-30 14:44 | 37.58704 | -10.08354 | 33098 ft | 436 kts | 232° |
| 2026-04-30 14:44 | 37.55061 | -10.14464 | 33101 ft | 436 kts | 232° |
| 2026-04-30 14:45 | 37.51442 | -10.20516 | 33106 ft | 435 kts | 232° |
| 2026-04-30 14:45 | 37.47806 | -10.26597 | 33097 ft | 435 kts | 232° |
| 2026-04-30 14:46 | 37.44160 | -10.32667 | 33101 ft | 434 kts | 232° |
| 2026-04-30 14:46 | 37.40515 | -10.38721 | 33103 ft | 434 kts | 232° |
| 2026-04-30 14:47 | 37.36862 | -10.44768 | 33102 ft | 434 kts | 232° |
| 2026-04-30 14:47 | 37.33222 | -10.50811 | 33096 ft | 434 kts | 232° |
| 2026-04-30 14:48 | 37.29585 | -10.56850 | 33093 ft | 433 kts | 232° |
| 2026-04-30 14:48 | 37.25949 | -10.62874 | 33099 ft | 433 kts | 232° |
| 2026-04-30 14:49 | 37.22298 | -10.68878 | 33098 ft | 432 kts | 231° |
| 2026-04-30 14:49 | 37.18656 | -10.74869 | 33101 ft | 432 kts | 232° |
| 2026-04-30 14:50 | 37.13202 | -10.83842 | 33100 ft | 431 kts | 232° |
| 2026-04-30 14:51 | 37.07743 | -10.92773 | 33100 ft | 430 kts | 232° |
| 2026-04-30 14:52 | 37.02286 | -11.01696 | 33099 ft | 430 kts | 231° |
| 2026-04-30 14:52 | 36.96847 | -11.10545 | 33091 ft | 429 kts | 231° |
| 2026-04-30 14:53 | 36.91397 | -11.19411 | 33087 ft | 428 kts | 231° |
| 2026-04-30 14:54 | 36.84128 | -11.31202 | 33084 ft | 428 kts | 231° |
| 2026-04-30 14:55 | 36.78671 | -11.40006 | 33086 ft | 427 kts | 231° |
| 2026-04-30 14:56 | 36.71392 | -11.51703 | 33083 ft | 427 kts | 231° |
| 2026-04-30 14:57 | 36.65942 | -11.60464 | 33084 ft | 426 kts | 231° |
| 2026-04-30 14:58 | 36.58659 | -11.72124 | 33086 ft | 426 kts | 231° |
| 2026-04-30 14:58 | 36.53225 | -11.80807 | 33085 ft | 426 kts | 231° |
| 2026-04-30 15:00 | 36.44125 | -11.95279 | 33083 ft | 425 kts | 231° |
| 2026-04-30 15:01 | 36.36839 | -12.06805 | 33080 ft | 424 kts | 232° |
| 2026-04-30 15:01 | 36.31384 | -12.15427 | 33080 ft | 424 kts | 232° |
| 2026-04-30 15:02 | 36.27742 | -12.21167 | 33079 ft | 423 kts | 232° |
| 2026-04-30 15:03 | 36.19223 | -12.34558 | 33076 ft | 423 kts | 231° |
| 2026-04-30 15:04 | 36.10099 | -12.48845 | 33075 ft | 423 kts | 232° |
| 2026-04-30 15:06 | 36.00668 | -12.62743 | 33073 ft | 424 kts | 228° |
| 2026-04-30 15:07 | 35.92602 | -12.73378 | 33056 ft | 424 kts | 230° |
| 2026-04-30 15:08 | 35.84620 | -12.84116 | 33066 ft | 425 kts | 231° |
| 2026-04-30 15:09 | 35.74609 | -12.97523 | 33075 ft | 425 kts | 232° |
| 2026-04-30 15:10 | 35.66585 | -13.08228 | 33075 ft | 426 kts | 232° |
| 2026-04-30 15:11 | 35.54538 | -13.24253 | 33082 ft | 425 kts | 233° |
| 2026-04-30 15:13 | 35.44469 | -13.37570 | 33083 ft | 425 kts | 233° |
| 2026-04-30 15:14 | 35.30414 | -13.56073 | 33095 ft | 422 kts | 234° |
| 2026-04-30 15:17 | 35.12467 | -13.79548 | 33079 ft | 420 kts | 234° |
| 2026-04-30 15:19 | 34.96451 | -14.00383 | 33076 ft | 420 kts | 234° |